Time;durP1;ratioP1;P1;durP2;ratioP2;P2;SDS_P1;SDS_P2;PMS_P1;PMS_P2;Temp;Humidity;BMP_temperature;BMP_pressure;BME280_temperature;BME280_humidity;BME280_pressure;Samples;Min_cycle;Max_cycle;Signal;HPM_P1;HPM_P2
2021/11/22 00:04:09;;;;;;;;;;;;;;;1.98;100.00;94558.03;10402455;28;20387;-74
2021/11/22 00:09:10;;;;;;;;;;;;;;;1.93;100.00;94556.06;10403580;28;19924;-78
2021/11/22 00:14:10;;;;;;;;;;;;;;;1.97;100.00;94559.09;10418110;28;19979;-81
2021/11/22 00:19:10;;;;;;;;;;;;;;;2.00;100.00;94554.16;10402094;28;19913;-77
2021/11/22 00:24:11;;;;;;;;;;;;;;;2.20;100.00;94564.47;10402318;28;20008;-77
2021/11/22 00:29:11;;;;;;;;;;;;;;;2.36;100.00;94556.94;10402601;28;19917;-78
2021/11/22 00:34:11;;;;;;;;;;;;;;;2.45;100.00;94552.91;10417603;28;19975;-75
2021/11/22 00:39:12;;;;;;;;;;;;;;;2.50;100.00;94544.31;10402618;28;19913;-75
2021/11/22 00:44:12;;;;;;;;;;;;;;;2.47;100.00;94534.94;10401826;28;20338;-76
2021/11/22 00:49:12;;;;;;;;;;;;;;;2.72;100.00;94541.88;10384422;28;19963;-75
2021/11/22 00:54:14;;;;;;;;;;;;;;;2.87;100.00;94539.59;10417814;28;19982;-78
2021/11/22 00:59:14;;;;;;;;;;;;;;;2.99;100.00;94542.28;10400862;28;19920;-75
2021/11/22 01:04:15;;;;;;;;;;;;;;;3.05;100.00;94543.19;10401445;28;20415;-72
2021/11/22 01:09:15;;;;;;;;;;;;;;;2.99;100.00;94547.59;10410520;28;19979;-76
2021/11/22 01:14:15;;;;;;;;;;;;;;;2.90;100.00;94539.16;10430963;28;20394;-82
2021/11/22 01:19:18;;;;;;;;;;;;;;;2.69;100.00;94542.34;10413693;28;20430;-74
2021/11/22 01:24:18;;;;;;;;;;;;;;;2.69;100.00;94537.88;10415773;28;19967;-74
2021/11/22 01:29:18;;;;;;;;;;;;;;;2.52;100.00;94548.31;10415940;28;20004;-78
2021/11/22 01:34:19;;;;;;;;;;;;;;;2.33;100.00;94531.69;10430559;28;20437;-77
2021/11/22 01:39:19;;;;;;;;;;;;;;;2.05;100.00;94538.38;10414590;28;19917;-77
2021/11/22 01:44:19;;;;;;;;;;;;;;;1.96;100.00;94557.47;10414770;28;19920;-77
2021/11/22 01:49:20;;;;;;;;;;;;;;;1.96;100.00;94552.16;10416928;28;19931;-73
2021/11/22 01:54:20;;;;;;;;;;;;;;;2.06;100.00;94544.47;10418226;28;19913;-72
2021/11/22 01:59:21;;;;;;;;;;;;;;;2.11;100.00;94544.63;10417060;28;19917;-79
2021/11/22 02:04:21;;;;;;;;;;;;;;;1.90;100.00;94550.41;10440077;28;20259;-75
2021/11/22 02:09:21;;;;;;;;;;;;;;;1.84;100.00;94552.94;10433066;28;19917;-76
2021/11/22 02:14:22;;;;;;;;;;;;;;;1.97;100.00;94540.56;10447520;28;19917;-75
2021/11/22 02:19:22;;;;;;;;;;;;;;;1.98;100.00;94540.31;10430242;28;19913;-76
2021/11/22 02:24:22;;;;;;;;;;;;;;;1.94;100.00;94535.66;10442380;28;20015;-75
2021/11/22 02:29:23;;;;;;;;;;;;;;;2.06;100.00;94533.88;10443501;28;19913;-76
2021/11/22 02:34:23;;;;;;;;;;;;;;;1.83;100.00;94527.47;10409293;28;20387;-77
2021/11/22 02:39:24;;;;;;;;;;;;;;;1.76;100.00;94525.91;10424305;28;19980;-74
2021/11/22 02:44:24;;;;;;;;;;;;;;;1.79;100.00;94523.63;10406698;28;19917;-78
2021/11/22 02:49:24;;;;;;;;;;;;;;;1.89;100.00;94528.41;10422583;28;19963;-75
2021/11/22 02:54:25;;;;;;;;;;;;;;;1.93;100.00;94524.28;10422872;28;19925;-71
2021/11/22 02:59:26;;;;;;;;;;;;;;;1.97;100.00;94520.16;10405106;28;20395;-78
2021/11/22 03:04:33;;;;;;;;;;;;;;;2.10;100.00;94524.44;10388740;28;19925;-74
2021/11/22 03:09:34;;;;;;;;;;;;;;;2.18;100.00;94523.34;10406065;28;19913;-73
2021/11/22 03:14:35;;;;;;;;;;;;;;;2.16;100.00;94526.22;10388085;28;19920;-74
2021/11/22 03:19:35;;;;;;;;;;;;;;;2.20;100.00;94515.94;10404900;28;20036;-76
2021/11/22 03:24:36;;;;;;;;;;;;;;;2.12;100.00;94529.53;10403956;28;19917;-73
2021/11/22 03:29:36;;;;;;;;;;;;;;;2.05;100.00;94526.94;10403126;28;20338;-74
2021/11/22 03:34:36;;;;;;;;;;;;;;;2.10;100.00;94521.78;10404921;28;20004;-79
2021/11/22 03:39:37;;;;;;;;;;;;;;;2.16;100.00;94533.34;10402976;28;19924;-75
2021/11/22 03:44:37;;;;;;;;;;;;;;;2.11;100.00;94536.69;10404922;28;20020;-76
2021/11/22 03:49:38;;;;;;;;;;;;;;;2.05;100.00;94537.56;10419471;28;19913;-73
2021/11/22 03:54:38;;;;;;;;;;;;;;;1.86;100.00;94534.16;10402727;28;20119;-73
2021/11/22 03:59:39;;;;;;;;;;;;;;;1.84;100.00;94536.19;10419685;28;19933;-75
2021/11/22 04:04:39;;;;;;;;;;;;;;;2.00;100.00;94550.69;10418961;28;19931;-76
2021/11/22 04:09:39;;;;;;;;;;;;;;;1.97;100.00;94543.19;10402349;28;19920;-74
2021/11/22 04:14:40;;;;;;;;;;;;;;;2.09;100.00;94538.72;10425148;28;20007;-78
2021/11/22 04:19:41;;;;;;;;;;;;;;;2.11;100.00;94554.41;10443344;28;19916;-81
2021/11/22 04:24:41;;;;;;;;;;;;;;;1.91;100.00;94560.78;10443103;28;19925;-78
2021/11/22 04:29:42;;;;;;;;;;;;;;;2.00;100.00;94562.09;10442626;28;19916;-75
2021/11/22 04:34:42;;;;;;;;;;;;;;;2.12;100.00;94558.69;10459825;28;20030;-74
2021/11/22 04:39:43;;;;;;;;;;;;;;;2.22;100.00;94553.66;10444005;28;20004;-77
2021/11/22 04:44:43;;;;;;;;;;;;;;;2.23;100.00;94560.56;10458693;28;20023;-81
2021/11/22 04:49:43;;;;;;;;;;;;;;;2.11;100.00;94565.84;10442503;28;19924;-74
2021/11/22 04:54:44;;;;;;;;;;;;;;;1.87;100.00;94573.69;10442944;28;20310;-80
2021/11/22 04:59:44;;;;;;;;;;;;;;;1.83;100.00;94598.19;10441390;28;19917;-73
2021/11/22 05:04:45;;;;;;;;;;;;;;;1.93;100.00;94597.69;10442263;28;20071;-75
2021/11/22 05:09:46;;;;;;;;;;;;;;;1.76;100.00;94600.91;10427505;28;20078;-84
2021/11/22 05:14:47;;;;;;;;;;;;;;;1.92;100.00;94604.00;10444768;28;19913;-81
2021/11/22 05:19:48;;;;;;;;;;;;;;;1.95;100.00;94595.59;10440912;28;19916;-79
2021/11/22 05:24:51;;;;;;;;;;;;;;;2.09;100.00;94597.03;10442690;28;20037;-75
2021/11/22 05:29:52;;;;;;;;;;;;;;;2.22;100.00;94590.78;10442187;28;19932;-77
2021/11/22 05:34:54;;;;;;;;;;;;;;;2.18;100.00;94587.75;10435184;28;19913;-75
2021/11/22 05:39:55;;;;;;;;;;;;;;;2.18;100.00;94601.03;10400923;28;19920;-78
2021/11/22 05:44:55;;;;;;;;;;;;;;;2.34;100.00;94604.88;10400015;28;19921;-77
2021/11/22 05:50:03;;;;;;;;;;;;;;;2.44;100.00;94609.63;10399658;28;20391;-79
2021/11/22 05:55:06;;;;;;;;;;;;;;;2.58;100.00;94606.81;10401896;28;19917;-77
2021/11/22 06:00:08;;;;;;;;;;;;;;;2.65;100.00;94618.13;10408030;28;19920;-80
2021/11/22 06:05:08;;;;;;;;;;;;;;;2.66;100.00;94619.75;10406352;28;19944;-78
2021/11/22 06:10:08;;;;;;;;;;;;;;;2.68;100.00;94618.50;10406208;28;19921;-74
2021/11/22 06:15:09;;;;;;;;;;;;;;;2.72;100.00;94622.31;10406593;28;19963;-75
2021/11/22 06:20:09;;;;;;;;;;;;;;;2.82;100.00;94631.56;10406326;28;19920;-75
2021/11/22 06:25:10;;;;;;;;;;;;;;;3.02;100.00;94632.06;10406927;28;19983;-76
2021/11/22 06:30:14;;;;;;;;;;;;;;;3.05;100.00;94617.53;10414964;28;19917;-77
2021/11/22 06:35:17;;;;;;;;;;;;;;;3.10;100.00;94633.59;10408867;28;19983;-77
2021/11/22 06:40:18;;;;;;;;;;;;;;;3.22;100.00;94638.91;10402910;28;19921;-76
2021/11/22 06:45:19;;;;;;;;;;;;;;;3.61;100.00;94638.47;10401654;28;20375;-75
2021/11/22 06:50:19;;;;;;;;;;;;;;;3.85;100.00;94631.28;10401996;28;20413;-72
2021/11/22 06:55:20;;;;;;;;;;;;;;;3.84;100.00;94619.06;10386019;28;20016;-74
2021/11/22 07:00:21;;;;;;;;;;;;;;;3.76;100.00;94628.19;10403860;28;19921;-74
2021/11/22 07:05:22;;;;;;;;;;;;;;;3.88;100.00;94628.16;10403461;28;19932;-75
2021/11/22 07:10:23;;;;;;;;;;;;;;;3.91;100.00;94625.06;10403044;28;20293;-78
2021/11/22 07:15:23;;;;;;;;;;;;;;;4.03;100.00;94622.34;10403970;28;19913;-75
2021/11/22 07:20:23;;;;;;;;;;;;;;;4.18;100.00;94614.69;10401580;28;20469;-76
2021/11/22 07:25:27;;;;;;;;;;;;;;;4.43;100.00;94624.22;10403810;28;19921;-78
2021/11/22 07:30:27;;;;;;;;;;;;;;;5.49;100.00;94625.47;10402561;28;19917;-77
2021/11/22 07:35:28;;;;;;;;;;;;;;;6.18;100.00;94618.97;10403563;28;19987;-78
2021/11/22 07:40:29;;;;;;;;;;;;;;;6.37;100.00;94618.66;10403234;28;19920;-79
2021/11/22 07:45:30;;;;;;;;;;;;;;;6.56;100.00;94625.28;10402302;28;19921;-76
2021/11/22 07:50:30;;;;;;;;;;;;;;;6.78;100.00;94619.09;10402734;28;20427;-77
2021/11/22 07:55:30;;;;;;;;;;;;;;;7.32;100.00;94612.91;10400644;28;19913;-76
2021/11/22 08:00:31;;;;;;;;;;;;;;;7.58;100.00;94610.44;10401178;28;20410;-75
2021/11/22 08:05:32;;;;;;;;;;;;;;;7.91;100.00;94598.59;10401141;28;19925;-80
2021/11/22 08:10:35;;;;;;;;;;;;;;;8.46;100.00;94603.69;10399561;28;19919;-73
2021/11/22 08:15:36;;;;;;;;;;;;;;;8.87;100.00;94601.91;10402167;28;20484;-75
2021/11/22 08:20:36;;;;;;;;;;;;;;;9.44;100.00;94604.63;10401593;28;19964;-75
2021/11/22 08:25:37;;;;;;;;;;;;;;;9.77;100.00;94610.50;10400200;28;20004;-79
2021/11/22 08:30:38;;;;;;;;;;;;;;;10.22;100.00;94606.09;10402082;28;20379;-77
2021/11/22 08:35:38;;;;;;;;;;;;;;;10.63;99.37;94596.28;10384808;28;20448;-75
2021/11/22 08:40:41;;;;;;;;;;;;;;;11.07;94.38;94600.88;10400289;28;19913;-74
2021/11/22 08:45:44;;;;;;;;;;;;;;;11.15;92.30;94602.16;10387303;28;19975;-79
2021/11/22 08:50:46;;;;;;;;;;;;;;;11.23;91.59;94591.63;10405461;28;20301;-77
2021/11/22 08:55:47;;;;;;;;;;;;;;;11.66;89.85;94582.91;10403162;28;20586;-75
2021/11/22 09:00:47;;;;;;;;;;;;;;;12.20;81.50;94582.94;10400725;28;20108;-76
2021/11/22 09:05:47;;;;;;;;;;;;;;;12.61;77.88;94585.94;10402532;28;19925;-75
2021/11/22 09:10:48;;;;;;;;;;;;;;;12.86;77.17;94577.81;10382762;28;19913;-75
2021/11/22 09:15:48;;;;;;;;;;;;;;;12.59;80.64;94581.94;10422565;28;19924;-78
2021/11/22 09:20:48;;;;;;;;;;;;;;;12.75;75.33;94583.31;10399447;28;20409;-76
2021/11/22 09:25:51;;;;;;;;;;;;;;;12.67;79.66;94570.50;10400053;28;19924;-77
2021/11/22 09:30:51;;;;;;;;;;;;;;;12.91;73.26;94578.53;10406224;28;19913;-75
2021/11/22 09:35:52;;;;;;;;;;;;;;;12.75;75.63;94574.44;10425729;28;19917;-73
2021/11/22 09:40:53;;;;;;;;;;;;;;;13.15;72.15;94573.03;10407335;28;19913;-75
2021/11/22 09:45:53;;;;;;;;;;;;;;;13.60;68.96;94575.31;10410712;28;19928;-76
2021/11/22 09:50:53;;;;;;;;;;;;;;;13.62;69.41;94559.66;10407742;28;20039;-79
2021/11/22 09:55:54;;;;;;;;;;;;;;;14.05;64.07;94555.91;10404249;28;20012;-76
2021/11/22 10:00:56;;;;;;;;;;;;;;;14.03;65.76;94550.00;10377839;28;19925;-75
2021/11/22 10:06:01;;;;;;;;;;;;;;;14.85;59.91;94539.44;10409047;28;19928;-77
2021/11/22 10:11:01;;;;;;;;;;;;;;;15.77;56.87;94517.47;10403913;28;20382;-75
2021/11/22 10:16:07;;;;;;;;;;;;;;;16.26;52.87;94520.22;10397072;28;19913;-77
2021/11/22 10:21:09;;;;;;;;;;;;;;;16.29;52.66;94513.38;10411902;28;19921;-78
2021/11/22 10:26:19;;;;;;;;;;;;;;;16.00;52.84;94509.28;10409025;28;19947;-76
2021/11/22 10:31:21;;;;;;;;;;;;;;;15.73;55.43;94511.06;10399924;28;20414;-75
2021/11/22 10:36:23;;;;;;;;;;;;;;;15.64;54.08;94513.72;10387346;28;20311;-74
2021/11/22 10:41:25;;;;;;;;;;;;;;;15.37;56.81;94503.84;10381289;28;19917;-75
2021/11/22 10:46:28;;;;;;;;;;;;;;;14.60;59.90;94511.03;10413127;28;19917;-74
2021/11/22 10:51:28;;;;;;;;;;;;;;;14.25;62.08;94497.94;10416366;28;19959;-74
2021/11/22 10:56:35;;;;;;;;;;;;;;;13.87;63.97;94502.75;10408946;28;19955;-74
2021/11/22 11:01:40;;;;;;;;;;;;;;;13.80;66.09;94501.25;10520589;22;20304;-79
2021/11/22 11:06:43;;;;;;;;;;;;;;;13.71;67.58;94494.16;10438503;28;19917;-78
2021/11/22 11:11:44;;;;;;;;;;;;;;;14.07;69.10;94496.16;10448450;28;19916;-78
2021/11/22 11:16:44;;;;;;;;;;;;;;;14.17;65.63;94504.06;10445553;28;20337;-76
2021/11/22 11:21:49;;;;;;;;;;;;;;;14.66;65.14;94485.47;10446179;28;19978;-79
2021/11/22 11:26:49;;;;;;;;;;;;;;;15.03;61.58;94478.16;10444774;28;20012;-78
2021/11/22 11:31:50;;;;;;;;;;;;;;;15.01;60.63;94489.28;10443476;28;20359;-75
2021/11/22 11:37:09;;;;;;;;;;;;;;;14.53;61.64;94487.88;10443907;28;19920;-78
2021/11/22 11:42:15;;;;;;;;;;;;;;;13.88;69.07;94490.84;10459995;28;19913;-79
2021/11/22 11:47:27;;;;;;;;;;;;;;;13.60;71.18;94488.13;10444269;28;19924;-80
2021/11/22 11:52:34;;;;;;;;;;;;;;;13.01;76.22;94493.94;10441609;28;20000;-77
2021/11/22 11:57:34;;;;;;;;;;;;;;;12.75;81.38;94488.94;10443125;28;19913;-78
2021/11/22 12:02:36;;;;;;;;;;;;;;;12.65;84.87;94492.59;10441721;28;19924;-73
2021/11/22 12:07:40;;;;;;;;;;;;;;;12.41;90.09;94494.56;10420380;28;19917;-76
2021/11/22 12:12:49;;;;;;;;;;;;;;;12.44;91.37;94489.38;10401679;28;20287;-74
2021/11/22 12:17:52;;;;;;;;;;;;;;;12.22;92.40;94497.22;10402426;28;19921;-79
2021/11/22 12:22:52;;;;;;;;;;;;;;;12.06;94.69;94486.66;10420693;28;19913;-74
2021/11/22 12:27:53;;;;;;;;;;;;;;;12.21;94.33;94495.63;10441782;28;20243;-74
2021/11/22 12:32:53;;;;;;;;;;;;;;;12.20;95.14;94499.44;10440922;28;20400;-79
2021/11/22 12:38:16;;;;;;;;;;;;;;;12.10;94.78;94486.88;10442430;28;19931;-77
2021/11/22 12:43:35;;;;;;;;;;;;;;;11.99;92.71;94486.19;10442358;28;19936;-74
2021/11/22 12:48:40;;;;;;;;;;;;;;;11.69;97.19;94485.41;10441579;28;19960;-75
2021/11/22 12:53:59;;;;;;;;;;;;;;;11.52;100.00;94490.47;10440247;28;20354;-75
2021/11/22 12:59:06;;;;;;;;;;;;;;;11.50;100.00;94492.63;10442797;28;19948;-78
2021/11/22 13:04:06;;;;;;;;;;;;;;;11.36;100.00;94505.94;10442323;28;19971;-75
2021/11/22 13:09:11;;;;;;;;;;;;;;;11.42;100.00;94497.53;10441947;28;19917;-74
2021/11/22 13:14:15;;;;;;;;;;;;;;;11.39;100.00;94481.97;10441801;28;19923;-73
2021/11/22 13:19:16;;;;;;;;;;;;;;;11.48;100.00;94500.19;10441010;28;19920;-75
2021/11/22 13:24:34;;;;;;;;;;;;;;;11.39;100.00;94492.72;10440560;28;20385;-73
2021/11/22 13:29:37;;;;;;;;;;;;;;;11.47;100.00;94485.94;10441047;28;19924;-74
2021/11/22 13:34:37;;;;;;;;;;;;;;;11.54;100.00;94485.59;10439723;28;19916;-77
2021/11/22 13:39:43;;;;;;;;;;;;;;;11.51;100.00;94478.09;10430608;28;19917;-74
2021/11/22 13:44:51;;;;;;;;;;;;;;;11.46;100.00;94485.13;10436729;28;19921;-74
2021/11/22 13:49:52;;;;;;;;;;;;;;;11.37;100.00;94476.09;10439505;28;19924;-75
2021/11/22 13:54:54;;;;;;;;;;;;;;;11.07;100.00;94485.22;10441558;28;20370;-73
2021/11/22 13:59:55;;;;;;;;;;;;;;;10.94;100.00;94492.84;10441217;28;19921;-77
2021/11/22 14:05:00;;;;;;;;;;;;;;;10.89;100.00;94502.84;10433817;28;19928;-74
2021/11/22 14:10:00;;;;;;;;;;;;;;;10.72;100.00;94492.50;10427269;28;20386;-76
2021/11/22 14:15:01;;;;;;;;;;;;;;;10.74;100.00;94483.06;10440865;28;20023;-75
2021/11/22 14:20:15;;;;;;;;;;;;;;;10.67;100.00;94476.41;10445821;28;19920;-81
2021/11/22 14:25:21;;;;;;;;;;;;;;;10.56;100.00;94475.66;10446838;28;19925;-75
2021/11/22 14:30:28;;;;;;;;;;;;;;;10.29;100.00;94466.13;10546201;22;19925;-78
2021/11/22 14:35:31;;;;;;;;;;;;;;;10.40;100.00;94472.28;10402822;28;19925;-74
2021/11/22 14:40:31;;;;;;;;;;;;;;;10.41;100.00;94482.75;10422191;28;20338;-79
2021/11/22 14:45:39;;;;;;;;;;;;;;;10.36;100.00;94490.81;10403902;28;19919;-80
2021/11/22 14:50:40;;;;;;;;;;;;;;;10.19;100.00;94487.69;10405664;28;20222;-79
2021/11/22 14:55:41;;;;;;;;;;;;;;;10.14;100.00;94485.81;10420679;28;20094;-79
2021/11/22 15:00:43;;;;;;;;;;;;;;;10.06;100.00;94487.19;10403773;28;20042;-79
2021/11/22 15:05:44;;;;;;;;;;;;;;;10.00;100.00;94490.97;10403564;28;19963;-81
2021/11/22 15:10:50;;;;;;;;;;;;;;;9.92;100.00;94487.00;10404872;28;19991;-75
2021/11/22 15:15:51;;;;;;;;;;;;;;;9.91;100.00;94492.63;10404687;28;20314;-75
2021/11/22 15:20:51;;;;;;;;;;;;;;;9.77;100.00;94494.28;10420280;28;19913;-76
2021/11/22 15:25:56;;;;;;;;;;;;;;;9.78;100.00;94504.72;10402957;28;20429;-79
2021/11/22 15:31:01;;;;;;;;;;;;;;;9.78;100.00;94495.88;10402161;28;19925;-75
2021/11/22 15:36:02;;;;;;;;;;;;;;;9.57;100.00;94512.03;10403021;28;19920;-74
2021/11/22 15:41:04;;;;;;;;;;;;;;;9.46;100.00;94503.22;10401275;28;19928;-79
2021/11/22 15:46:04;;;;;;;;;;;;;;;9.57;100.00;94509.34;10402402;28;19925;-75
2021/11/22 15:51:05;;;;;;;;;;;;;;;9.53;100.00;94506.44;10400985;28;20278;-75
2021/11/22 15:56:06;;;;;;;;;;;;;;;9.56;100.00;94510.47;10401229;28;19913;-75
2021/11/22 16:01:06;;;;;;;;;;;;;;;9.65;100.00;94511.50;10402578;28;19921;-75
2021/11/22 16:06:06;;;;;;;;;;;;;;;9.47;100.00;94514.75;10399440;28;19994;-82
2021/11/22 16:11:07;;;;;;;;;;;;;;;9.34;100.00;94530.31;10398908;28;19917;-74
2021/11/22 16:16:07;;;;;;;;;;;;;;;9.39;100.00;94522.28;10399988;28;19917;-74
2021/11/22 16:21:07;;;;;;;;;;;;;;;9.53;100.00;94521.72;10395850;28;19914;-83
2021/11/22 16:26:08;;;;;;;;;;;;;;;9.61;100.00;94521.16;10360328;28;19925;-72
2021/11/22 16:31:09;;;;;;;;;;;;;;;9.68;100.00;94516.31;10360293;28;19991;-74
2021/11/22 16:36:09;;;;;;;;;;;;;;;9.74;100.00;94517.91;10360165;28;20731;-80
2021/11/22 16:41:09;;;;;;;;;;;;;;;9.73;100.00;94529.72;10357902;28;20532;-78
2021/11/22 16:46:11;;;;;;;;;;;;;;;9.28;100.00;94528.75;10359253;28;19943;-80
2021/11/22 16:51:12;;;;;;;;;;;;;;;9.45;100.00;94536.50;10377342;28;20008;-81
2021/11/22 16:56:14;;;;;;;;;;;;;;;9.49;100.00;94542.09;10380462;28;20043;-74
2021/11/22 17:01:14;;;;;;;;;;;;;;;9.64;100.00;94542.09;10365132;28;19925;-75
2021/11/22 17:06:15;;;;;;;;;;;;;;;9.62;100.00;94543.44;10400525;28;19921;-75
2021/11/22 17:11:15;;;;;;;;;;;;;;;9.61;100.00;94557.94;10398796;28;19917;-78
2021/11/22 17:16:21;;;;;;;;;;;;;;;9.70;100.00;94550.94;10396851;28;19921;-80
2021/11/22 17:21:22;;;;;;;;;;;;;;;9.77;100.00;94558.69;10392044;28;19976;-77
2021/11/22 17:26:25;;;;;;;;;;;;;;;9.83;100.00;94565.66;10394624;28;20004;-79
2021/11/22 17:31:25;;;;;;;;;;;;;;;9.90;100.00;94564.28;10401018;28;20429;-78
2021/11/22 17:36:26;;;;;;;;;;;;;;;9.88;100.00;94557.63;10398776;28;20095;-74
2021/11/22 17:41:27;;;;;;;;;;;;;;;9.90;100.00;94558.91;10399148;28;20372;-75
2021/11/22 17:46:28;;;;;;;;;;;;;;;9.94;100.00;94567.25;10401000;28;20048;-77
2021/11/22 17:51:29;;;;;;;;;;;;;;;9.96;100.00;94573.13;10393888;28;20030;-72
2021/11/22 17:56:31;;;;;;;;;;;;;;;9.66;100.00;94579.38;10378028;28;20040;-78
2021/11/22 18:01:34;;;;;;;;;;;;;;;9.42;100.00;94582.63;10378858;28;19918;-75
2021/11/22 18:06:35;;;;;;;;;;;;;;;9.55;100.00;94571.34;10379932;28;19917;-74
2021/11/22 18:11:36;;;;;;;;;;;;;;;9.55;100.00;94568.66;10366238;28;19921;-79
2021/11/22 18:16:36;;;;;;;;;;;;;;;9.56;100.00;94574.84;10411199;28;19913;-76
2021/11/22 18:21:36;;;;;;;;;;;;;;;9.65;100.00;94583.94;10414529;28;19917;-78
2021/11/22 18:26:38;;;;;;;;;;;;;;;9.55;100.00;94592.81;10412809;28;19922;-78
2021/11/22 18:31:40;;;;;;;;;;;;;;;9.56;100.00;94593.63;10380381;28;19957;-80
2021/11/22 18:36:42;;;;;;;;;;;;;;;9.55;100.00;94603.53;10380966;28;20475;-78
2021/11/22 18:41:42;;;;;;;;;;;;;;;9.04;100.00;94598.97;10380551;28;19913;-79
2021/11/22 18:46:43;;;;;;;;;;;;;;;8.75;100.00;94611.25;10366023;28;20482;-79
2021/11/22 18:51:44;;;;;;;;;;;;;;;8.98;100.00;94599.25;10364954;28;19913;-76
2021/11/22 18:56:44;;;;;;;;;;;;;;;9.07;100.00;94608.38;10379443;28;19917;-74
2021/11/22 19:01:49;;;;;;;;;;;;;;;9.10;100.00;94596.28;10361956;28;19914;-74
2021/11/22 19:06:50;;;;;;;;;;;;;;;9.17;100.00;94607.56;10380494;28;20336;-80
2021/11/22 19:11:50;;;;;;;;;;;;;;;9.14;100.00;94603.56;10379477;28;19918;-76
2021/11/22 19:16:51;;;;;;;;;;;;;;;9.17;100.00;94607.56;10363457;28;19940;-74
2021/11/22 19:21:51;;;;;;;;;;;;;;;8.96;100.00;94618.28;10390872;28;19952;-77
2021/11/22 19:26:52;;;;;;;;;;;;;;;8.89;100.00;94612.38;10419085;28;19975;-79
2021/11/22 19:31:52;;;;;;;;;;;;;;;8.75;100.00;94611.25;10405588;28;19925;-76
2021/11/22 19:36:52;;;;;;;;;;;;;;;8.85;100.00;94619.31;10419988;28;19917;-74
2021/11/22 19:42:00;;;;;;;;;;;;;;;8.93;100.00;94628.69;10403420;28;19914;-78
2021/11/22 19:47:02;;;;;;;;;;;;;;;8.99;100.00;94619.63;10403940;28;20395;-73
2021/11/22 19:52:03;;;;;;;;;;;;;;;9.05;100.00;94615.88;10403295;28;19917;-78
2021/11/22 19:57:04;;;;;;;;;;;;;;;9.19;100.00;94616.94;10388250;28;19920;-75
2021/11/22 20:02:04;;;;;;;;;;;;;;;9.14;100.00;94614.28;10379296;28;19920;-72
2021/11/22 20:07:05;;;;;;;;;;;;;;;9.11;100.00;94622.03;10380807;28;19917;-74
2021/11/22 20:12:05;;;;;;;;;;;;;;;9.15;100.00;94623.13;10385574;28;19920;-74
2021/11/22 20:17:06;;;;;;;;;;;;;;;9.25;100.00;94633.84;10401272;28;19917;-75
2021/11/22 20:22:27;;;;;;;;;;;;;;;8.89;100.00;94639.97;10562570;27;19916;-75
2021/11/22 20:27:28;;;;;;;;;;;;;;;9.00;100.00;94627.41;10561331;28;19970;-76
2021/11/22 20:32:28;;;;;;;;;;;;;;;8.82;100.00;94638.59;10560264;28;20446;-77
2021/11/22 20:37:30;;;;;;;;;;;;;;;8.95;100.00;94639.97;10554057;28;20451;-75
2021/11/22 20:42:30;;;;;;;;;;;;;;;8.88;100.00;94642.91;10535602;28;19917;-75
2021/11/22 20:47:30;;;;;;;;;;;;;;;8.99;100.00;94649.09;10535481;28;19974;-75
2021/11/22 20:52:33;;;;;;;;;;;;;;;9.07;100.00;94640.53;10534369;28;20006;-74
2021/11/22 20:57:34;;;;;;;;;;;;;;;9.13;100.00;94646.72;10559917;28;19916;-74
2021/11/22 21:02:35;;;;;;;;;;;;;;;9.17;100.00;94645.91;10545942;28;19917;-74
2021/11/22 21:07:37;;;;;;;;;;;;;;;9.20;100.00;94658.78;10517270;28;19935;-74
2021/11/22 21:12:37;;;;;;;;;;;;;;;9.18;100.00;94646.72;10554710;22;19928;-78
2021/11/22 21:17:38;;;;;;;;;;;;;;;8.99;100.00;94633.81;10517106;28;20229;-73
2021/11/22 21:22:38;;;;;;;;;;;;;;;9.08;100.00;94655.53;10517518;28;19918;-78
2021/11/22 21:27:40;;;;;;;;;;;;;;;9.03;100.00;94664.38;10517324;28;19912;-75
2021/11/22 21:32:40;;;;;;;;;;;;;;;9.12;100.00;94650.47;10494164;28;20724;-75
2021/11/22 21:37:42;;;;;;;;;;;;;;;9.09;100.00;94648.31;10488770;28;19921;-79
2021/11/22 21:42:43;;;;;;;;;;;;;;;8.96;100.00;94653.13;10489626;28;19913;-74
2021/11/22 21:47:44;;;;;;;;;;;;;;;8.64;100.00;94658.66;10488101;28;19920;-73
2021/11/22 21:52:45;;;;;;;;;;;;;;;8.84;100.00;94647.19;10489039;28;20374;-75
2021/11/22 21:57:46;;;;;;;;;;;;;;;8.66;100.00;94649.25;10489874;28;19919;-78
2021/11/22 22:02:46;;;;;;;;;;;;;;;8.76;100.00;94656.53;10487930;28;20019;-74
2021/11/22 22:07:52;;;;;;;;;;;;;;;8.70;100.00;94665.63;10503863;28;20033;-75
2021/11/22 22:12:53;;;;;;;;;;;;;;;8.57;100.00;94669.59;10488951;28;20011;-75
2021/11/22 22:17:54;;;;;;;;;;;;;;;8.61;100.00;94665.34;10488653;28;19920;-75
2021/11/22 22:22:54;;;;;;;;;;;;;;;8.67;100.00;94652.75;10509712;28;19912;-77
2021/11/22 22:27:55;;;;;;;;;;;;;;;8.74;100.00;94633.78;10526738;28;19912;-74
2021/11/22 22:32:56;;;;;;;;;;;;;;;8.69;100.00;94640.72;10503548;28;20011;-82
2021/11/22 22:37:56;;;;;;;;;;;;;;;8.67;100.00;94642.84;10503412;28;19920;-73
2021/11/22 22:42:57;;;;;;;;;;;;;;;8.37;100.00;94643.50;10486985;28;20317;-76
2021/11/22 22:47:57;;;;;;;;;;;;;;;8.45;100.00;94639.56;10503302;28;19916;-77
2021/11/22 22:52:59;;;;;;;;;;;;;;;8.55;100.00;94635.06;10507976;28;19912;-81
2021/11/22 22:57:59;;;;;;;;;;;;;;;8.34;100.00;94639.50;10528919;28;19916;-75
2021/11/22 23:03:00;;;;;;;;;;;;;;;8.54;100.00;94640.66;10530550;28;20367;-75
2021/11/22 23:08:00;;;;;;;;;;;;;;;8.64;100.00;94637.22;10528294;28;19923;-75
2021/11/22 23:13:05;;;;;;;;;;;;;;;8.46;100.00;94647.31;10527776;28;19924;-82
2021/11/22 23:18:06;;;;;;;;;;;;;;;8.38;100.00;94645.13;10526496;28;20010;-73
2021/11/22 23:23:07;;;;;;;;;;;;;;;8.51;100.00;94638.50;10526631;28;19920;-78
2021/11/22 23:28:08;;;;;;;;;;;;;;;8.64;100.00;94632.66;10488424;28;19913;-74
2021/11/22 23:33:09;;;;;;;;;;;;;;;8.55;100.00;94634.22;10483850;28;19916;-73
2021/11/22 23:38:11;;;;;;;;;;;;;;;8.56;100.00;94633.16;10484666;28;20011;-79
2021/11/22 23:43:12;;;;;;;;;;;;;;;8.52;100.00;94642.78;10485261;28;19923;-74
2021/11/22 23:48:12;;;;;;;;;;;;;;;8.33;100.00;94653.13;10466837;28;19913;-73
2021/11/22 23:53:13;;;;;;;;;;;;;;;8.41;100.00;94660.66;10483540;28;19912;-77
2021/11/22 23:58:15;;;;;;;;;;;;;;;8.52;100.00;94662.34;10484306;28;20390;-74
